createdAt,value
2023-04-16T00:02:19.430Z,7.62
2023-04-16T00:07:22.493Z,7.62
2023-04-16T00:12:25.619Z,7.63
2023-04-16T00:17:30.256Z,7.60
2023-04-16T00:22:33.279Z,7.64
2023-04-16T00:27:36.589Z,7.60
2023-04-16T00:32:40.899Z,7.63
2023-04-16T00:37:44.014Z,7.60
2023-04-16T00:42:46.987Z,7.62
2023-04-16T00:47:51.763Z,7.66
2023-04-16T00:52:54.970Z,7.68
2023-04-16T00:57:58.080Z,7.68
2023-04-16T01:03:02.964Z,7.66
2023-04-16T01:08:06.824Z,7.72
2023-04-16T01:13:10.067Z,7.66
2023-04-16T01:18:18.462Z,7.69
2023-04-16T01:23:23.116Z,7.71
2023-04-16T01:28:26.178Z,7.75
2023-04-16T01:33:29.166Z,7.76
2023-04-16T01:38:33.935Z,7.76
2023-04-16T01:43:39.616Z,7.75
2023-04-16T01:48:43.514Z,7.75
2023-04-16T01:53:47.897Z,7.74
2023-04-16T01:58:51.465Z,7.73
2023-04-16T02:03:55.480Z,7.76
2023-04-16T02:09:00.152Z,7.78
2023-04-16T02:14:03.259Z,7.85
2023-04-16T02:19:06.590Z,7.84
2023-04-16T02:24:13.210Z,7.88
2023-04-16T02:29:17.274Z,7.90
2023-04-16T02:34:27.242Z,7.91
2023-04-16T02:39:31.775Z,7.95
2023-04-16T02:44:34.921Z,7.98
2023-04-16T02:49:37.910Z,7.99
2023-04-16T02:54:42.239Z,7.99
2023-04-16T02:59:45.336Z,7.98
2023-04-16T03:04:50.600Z,7.99
2023-04-16T03:09:54.964Z,7.95
2023-04-16T03:14:58.283Z,7.95
2023-04-16T03:20:01.482Z,7.91
2023-04-16T03:25:06.699Z,7.92
2023-04-16T03:30:12.415Z,7.90
2023-04-16T03:35:15.981Z,7.98
2023-04-16T03:40:20.515Z,7.98
2023-04-16T03:45:23.671Z,8.05
2023-04-16T03:50:27.765Z,8.07
2023-04-16T03:55:32.616Z,8.07
2023-04-16T04:00:35.666Z,8.07
2023-04-16T04:05:47.636Z,8.01
2023-04-16T04:10:56.174Z,7.94
2023-04-16T04:16:00.990Z,7.86
2023-04-16T04:21:07.145Z,7.87
2023-04-16T04:26:12.019Z,7.85
2023-04-16T04:31:16.595Z,7.84
2023-04-16T04:36:20.485Z,7.84
2023-04-16T04:41:27.029Z,7.82
2023-04-16T04:46:30.243Z,7.79
2023-04-16T04:51:33.436Z,7.75
2023-04-16T04:56:37.955Z,7.75
2023-04-16T05:01:41.107Z,7.77
2023-04-16T05:06:44.451Z,7.76
2023-04-16T05:11:48.812Z,7.79
2023-04-16T05:16:51.835Z,7.79
2023-04-16T05:21:55.547Z,7.74
2023-04-16T05:26:59.856Z,7.80
2023-04-16T05:32:02.858Z,7.79
2023-04-16T05:37:05.870Z,7.84
2023-04-16T05:42:10.200Z,7.84
2023-04-16T05:47:13.286Z,7.90
2023-04-16T05:52:16.416Z,7.92
2023-04-16T05:57:20.823Z,7.88
2023-04-16T06:02:24.029Z,7.93
2023-04-16T06:07:27.171Z,7.89
2023-04-16T06:12:31.828Z,7.94
2023-04-16T06:17:34.881Z,7.96
2023-04-16T06:22:38.130Z,7.97
2023-04-16T06:27:42.703Z,7.99
2023-04-16T06:32:46.568Z,8.01
2023-04-16T06:37:49.737Z,8.05
2023-04-16T06:42:54.581Z,8.19
2023-04-16T06:47:59.011Z,8.21
2023-04-16T06:53:02.375Z,8.18
2023-04-16T06:58:06.915Z,8.37
2023-04-16T07:03:10.327Z,8.40
2023-04-16T07:08:13.446Z,8.44
2023-04-16T07:13:18.645Z,8.42
2023-04-16T07:18:21.705Z,8.42
2023-04-16T07:23:24.885Z,8.47
2023-04-16T07:28:29.242Z,8.52
2023-04-16T07:33:32.340Z,8.53
2023-04-16T07:38:35.917Z,8.59
2023-04-16T07:49:03.391Z,8.60
2023-04-16T07:54:06.550Z,8.68
2023-04-16T07:59:21.922Z,8.73
2023-04-16T08:04:26.767Z,8.78
2023-04-16T08:09:29.985Z,8.73
2023-04-16T08:14:35.699Z,8.79
2023-04-16T08:19:38.818Z,8.79
2023-04-16T08:24:42.077Z,8.84
2023-04-16T08:29:46.503Z,8.91
2023-04-16T08:34:49.751Z,8.97
2023-04-16T08:39:52.833Z,9.01
2023-04-16T08:45:05.709Z,9.00
2023-04-16T08:50:12.674Z,9.08
2023-04-16T08:55:17.489Z,9.15
2023-04-16T09:00:22.422Z,9.11
2023-04-16T09:05:26.457Z,9.16
2023-04-16T09:10:29.852Z,9.13
2023-04-16T09:15:36.741Z,9.19
2023-04-16T09:20:40.292Z,9.22
2023-04-16T09:25:43.400Z,9.28
2023-04-16T09:30:48.141Z,9.33
2023-04-16T09:35:53.078Z,9.39
2023-04-16T09:41:07.386Z,9.44
2023-04-16T09:46:12.999Z,9.56
2023-04-16T09:51:16.406Z,9.58
2023-04-16T09:56:19.493Z,9.64
2023-04-16T10:01:24.957Z,9.66
2023-04-16T10:06:31.305Z,9.77
2023-04-16T10:11:35.038Z,9.83
2023-04-16T10:16:41.248Z,9.78
2023-04-16T10:21:44.518Z,9.79
2023-04-16T10:26:51.611Z,9.89
2023-04-16T10:31:57.359Z,9.86
2023-04-16T10:37:00.734Z,9.93
2023-04-16T10:42:11.147Z,9.94
2023-04-16T10:47:16.642Z,9.97
2023-04-16T10:52:22.485Z,9.89
2023-04-16T10:57:31.137Z,9.95
2023-04-16T11:02:36.026Z,9.98
2023-04-16T11:07:49.731Z,10.03
2023-04-16T11:12:54.463Z,10.05
2023-04-16T11:17:59.440Z,10.06
2023-04-16T11:23:02.587Z,10.07
2023-04-16T11:28:05.981Z,10.26
2023-04-16T11:33:13.008Z,10.30
2023-04-16T11:38:16.240Z,10.40
2023-04-16T11:43:19.377Z,10.37
2023-04-16T11:48:24.002Z,10.34
2023-04-16T11:53:29.653Z,10.54
2023-04-16T11:58:32.820Z,10.40
2023-04-16T12:03:46.384Z,10.51
2023-04-16T12:08:50.200Z,10.50
2023-04-16T12:14:09.633Z,10.42
2023-04-16T12:19:14.449Z,10.45
2023-04-16T12:24:20.820Z,10.30
2023-04-16T12:29:25.984Z,10.47
2023-04-16T12:34:47.932Z,10.92
2023-04-16T12:39:52.224Z,11.10
2023-04-16T12:44:55.201Z,10.90
2023-04-16T12:49:59.674Z,10.85
2023-04-16T12:55:03.101Z,10.97
2023-04-16T13:00:08.125Z,11.04
2023-04-16T13:05:13.253Z,11.17
2023-04-16T13:10:17.007Z,11.07
2023-04-16T13:15:20.697Z,11.29
2023-04-16T13:20:25.180Z,11.28
2023-04-16T13:25:28.245Z,11.37
2023-04-16T13:30:31.852Z,11.75
2023-04-16T13:35:37.207Z,12.03
2023-04-16T13:40:40.235Z,12.16
2023-04-16T13:45:43.270Z,12.24
2023-04-16T13:50:47.729Z,12.22
2023-04-16T13:55:51.523Z,12.07
2023-04-16T14:00:54.754Z,12.04
2023-04-16T14:05:59.294Z,12.01
2023-04-16T14:11:02.689Z,12.08
2023-04-16T14:16:06.217Z,12.21
2023-04-16T14:21:10.862Z,12.28
2023-04-16T14:26:14.390Z,12.19
2023-04-16T14:31:18.125Z,12.08
2023-04-16T14:36:22.830Z,12.05
2023-04-16T14:41:27.255Z,12.07
2023-04-16T14:46:30.622Z,11.91
2023-04-16T14:51:35.211Z,11.86
2023-04-16T14:56:38.563Z,11.84
2023-04-16T15:01:42.114Z,11.83
2023-04-16T15:06:46.829Z,11.82
2023-04-16T15:11:49.968Z,11.78
2023-04-16T15:16:53.313Z,11.65
2023-04-16T15:21:57.902Z,11.65
2023-04-16T15:27:02.482Z,11.63
2023-04-16T15:32:07.017Z,11.57
2023-04-16T15:37:12.048Z,11.61
2023-04-16T15:42:15.202Z,11.49
2023-04-16T15:47:18.292Z,11.53
2023-04-16T15:52:22.798Z,11.51
2023-04-16T15:57:26.410Z,11.43
2023-04-16T16:02:29.826Z,11.58
2023-04-16T16:07:34.728Z,11.43
2023-04-16T16:12:38.360Z,11.76
2023-04-16T16:17:41.833Z,11.90
2023-04-16T16:22:50.674Z,11.75
2023-04-16T16:27:53.725Z,11.80
2023-04-16T16:32:56.777Z,11.86
2023-04-16T16:38:01.877Z,11.97
2023-04-16T16:43:05.004Z,11.88
2023-04-16T16:48:09.169Z,11.77
2023-04-16T16:53:13.858Z,11.64
2023-04-16T16:58:17.181Z,11.63
2023-04-16T17:03:20.767Z,11.65
2023-04-16T17:08:25.492Z,11.65
2023-04-16T17:13:29.182Z,11.63
2023-04-16T17:18:32.296Z,11.58
2023-04-16T17:23:37.200Z,11.53
2023-04-16T17:28:41.032Z,11.45
2023-04-16T17:33:44.325Z,11.32
2023-04-16T17:38:48.999Z,11.20
2023-04-16T17:43:52.156Z,11.13
2023-04-16T17:48:55.217Z,11.02
2023-04-16T17:53:59.643Z,11.04
2023-04-16T17:59:02.849Z,11.07
2023-04-16T18:04:06.277Z,10.88
2023-04-16T18:09:11.537Z,10.95
2023-04-16T18:14:19.978Z,10.87
2023-04-16T18:19:23.132Z,10.77
2023-04-16T18:24:27.866Z,10.66
2023-04-16T18:29:33.820Z,10.64
2023-04-16T18:34:39.813Z,10.62
2023-04-16T18:39:44.209Z,10.56
2023-04-16T18:44:54.019Z,10.53
2023-04-16T18:49:57.490Z,10.47
2023-04-16T18:55:02.139Z,10.48
2023-04-16T19:00:09.647Z,10.43
2023-04-16T19:05:12.716Z,10.44
2023-04-16T19:10:17.407Z,10.40
2023-04-16T19:15:20.957Z,10.29
2023-04-16T19:20:23.949Z,10.33
2023-04-16T19:25:28.671Z,10.34
2023-04-16T19:30:32.065Z,10.24
2023-04-16T19:35:35.373Z,10.26
2023-04-16T19:40:40.273Z,10.08
2023-04-16T19:45:46.980Z,10.11
2023-04-16T19:50:50.025Z,10.03
2023-04-16T19:55:54.419Z,10.02
2023-04-16T20:00:57.698Z,9.96
2023-04-16T20:06:02.087Z,9.92
2023-04-16T20:11:08.607Z,9.88
2023-04-16T20:16:13.618Z,9.86
2023-04-16T20:21:16.757Z,9.82
2023-04-16T20:26:24.060Z,9.79
2023-04-16T20:31:27.378Z,9.75
2023-04-16T20:36:30.669Z,9.77
2023-04-16T20:41:35.333Z,9.75
2023-04-16T20:46:39.623Z,9.69
2023-04-16T20:51:42.825Z,9.69
2023-04-16T20:56:47.524Z,9.66
2023-04-16T21:01:52.067Z,9.59
2023-04-16T21:06:55.385Z,9.54
2023-04-16T21:12:00.164Z,9.49
2023-04-16T21:17:03.802Z,9.52
2023-04-16T21:22:07.622Z,9.43
2023-04-16T21:27:12.183Z,9.31
2023-04-16T21:32:15.779Z,9.22
2023-04-16T21:37:18.985Z,9.22
2023-04-16T21:42:23.523Z,9.08
2023-04-16T21:47:27.129Z,9.17
2023-04-16T21:52:30.546Z,9.14
2023-04-16T21:57:34.995Z,9.16
2023-04-16T22:02:38.105Z,9.09
2023-04-16T22:07:41.439Z,9.14
2023-04-16T22:12:46.729Z,9.06
2023-04-16T22:17:50.362Z,9.10
2023-04-16T22:22:57.947Z,9.05
2023-04-16T22:28:02.526Z,9.07
2023-04-16T22:33:05.833Z,8.97
2023-04-16T22:38:09.024Z,8.94
2023-04-16T22:43:13.387Z,8.94
2023-04-16T22:48:17.354Z,8.95
2023-04-16T22:53:20.865Z,8.87
2023-04-16T22:58:25.742Z,8.99
2023-04-16T23:03:29.251Z,8.99
2023-04-16T23:08:32.375Z,8.93
2023-04-16T23:13:37.404Z,9.00
2023-04-16T23:18:40.569Z,8.97
2023-04-16T23:23:43.738Z,8.92
2023-04-16T23:28:48.160Z,8.95
2023-04-16T23:33:51.744Z,8.94
2023-04-16T23:38:54.912Z,8.89
2023-04-16T23:43:59.434Z,8.84
2023-04-16T23:49:02.640Z,8.87
2023-04-16T23:54:06.104Z,8.85
2023-04-16T23:59:11.365Z,8.86
